sensor_id;sensor_type;location;lat;lon;timestamp;pressure;altitude;pressure_sealevel;temperature;humidity
34658;BME280;20865;43.312;27.152;2023-04-15T00:01:52;99801.31;;;19.54;39.51
34658;BME280;20865;43.312;27.152;2023-04-15T00:04:19;99796.48;;;19.52;39.58
34658;BME280;20865;43.312;27.152;2023-04-15T00:06:50;99786.41;;;19.54;39.70
34658;BME280;20865;43.312;27.152;2023-04-15T00:09:19;99789.00;;;19.56;39.79
34658;BME280;20865;43.312;27.152;2023-04-15T00:11:46;99790.13;;;19.59;39.92
34658;BME280;20865;43.312;27.152;2023-04-15T00:14:12;99807.63;;;19.60;40.01
34658;BME280;20865;43.312;27.152;2023-04-15T00:16:40;99807.04;;;19.44;40.09
34658;BME280;20865;43.312;27.152;2023-04-15T00:19:07;99805.56;;;19.45;39.84
34658;BME280;20865;43.312;27.152;2023-04-15T00:21:34;99821.59;;;19.48;39.75
34658;BME280;20865;43.312;27.152;2023-04-15T00:24:01;99836.77;;;19.33;39.90
34658;BME280;20865;43.312;27.152;2023-04-15T00:26:28;99838.91;;;19.40;40.04
34658;BME280;20865;43.312;27.152;2023-04-15T00:28:55;99827.66;;;19.34;40.22
34658;BME280;20865;43.312;27.152;2023-04-15T00:31:22;99821.34;;;19.46;40.08
34658;BME280;20865;43.312;27.152;2023-04-15T00:33:48;99820.63;;;19.49;40.21
34658;BME280;20865;43.312;27.152;2023-04-15T00:36:15;99825.83;;;19.53;40.19
34658;BME280;20865;43.312;27.152;2023-04-15T00:38:42;99817.44;;;19.56;40.14
34658;BME280;20865;43.312;27.152;2023-04-15T00:41:09;99821.13;;;19.55;40.16
34658;BME280;20865;43.312;27.152;2023-04-15T00:43:36;99821.90;;;19.57;40.16
34658;BME280;20865;43.312;27.152;2023-04-15T00:46:03;99823.03;;;19.60;40.33
34658;BME280;20865;43.312;27.152;2023-04-15T00:48:30;99828.31;;;19.61;40.21
34658;BME280;20865;43.312;27.152;2023-04-15T00:50:57;99836.75;;;19.64;40.09
34658;BME280;20865;43.312;27.152;2023-04-15T00:53:24;99868.81;;;19.57;40.39
34658;BME280;20865;43.312;27.152;2023-04-15T00:55:51;99876.03;;;19.51;40.66
34658;BME280;20865;43.312;27.152;2023-04-15T00:58:19;99860.27;;;19.50;41.05
34658;BME280;20865;43.312;27.152;2023-04-15T01:00:46;99883.17;;;19.52;41.30
34658;BME280;20865;43.312;27.152;2023-04-15T01:03:13;99910.23;;;19.46;42.00
34658;BME280;20865;43.312;27.152;2023-04-15T01:05:40;99911.59;;;19.46;42.48
34658;BME280;20865;43.312;27.152;2023-04-15T01:08:07;99889.92;;;19.46;42.74
34658;BME280;20865;43.312;27.152;2023-04-15T01:10:34;99858.36;;;19.40;43.00
34658;BME280;20865;43.312;27.152;2023-04-15T01:13:01;99860.20;;;19.39;43.54
34658;BME280;20865;43.312;27.152;2023-04-15T01:15:28;99859.98;;;19.42;43.74
34658;BME280;20865;43.312;27.152;2023-04-15T01:18:00;99846.53;;;19.41;43.96
34658;BME280;20865;43.312;27.152;2023-04-15T01:20:24;99834.34;;;19.41;43.91
34658;BME280;20865;43.312;27.152;2023-04-15T01:22:52;99827.23;;;19.45;43.76
34658;BME280;20865;43.312;27.152;2023-04-15T01:25:29;99821.72;;;19.47;43.68
34658;BME280;20865;43.312;27.152;2023-04-15T01:27:54;99820.31;;;19.41;44.17
34658;BME280;20865;43.312;27.152;2023-04-15T01:30:21;99821.17;;;19.42;44.46
34658;BME280;20865;43.312;27.152;2023-04-15T01:32:47;99827.48;;;19.42;44.75
34658;BME280;20865;43.312;27.152;2023-04-15T01:35:14;99826.13;;;19.42;44.51
34658;BME280;20865;43.312;27.152;2023-04-15T01:37:41;99831.42;;;19.44;44.44
34658;BME280;20865;43.312;27.152;2023-04-15T01:40:08;99840.84;;;19.38;44.45
34658;BME280;20865;43.312;27.152;2023-04-15T01:42:35;99835.88;;;19.14;44.62
34658;BME280;20865;43.312;27.152;2023-04-15T01:45:03;99841.64;;;19.27;44.53
34658;BME280;20865;43.312;27.152;2023-04-15T01:47:30;99830.81;;;19.27;44.73
34658;BME280;20865;43.312;27.152;2023-04-15T01:49:56;99819.56;;;19.21;44.49
34658;BME280;20865;43.312;27.152;2023-04-15T01:52:23;99826.82;;;19.20;44.84
34658;BME280;20865;43.312;27.152;2023-04-15T01:54:50;99817.70;;;19.16;44.95
34658;BME280;20865;43.312;27.152;2023-04-15T01:57:17;99821.75;;;19.16;45.13
34658;BME280;20865;43.312;27.152;2023-04-15T01:59:44;99832.59;;;19.16;44.87
34658;BME280;20865;43.312;27.152;2023-04-15T02:02:11;99826.03;;;19.13;44.64
34658;BME280;20865;43.312;27.152;2023-04-15T02:04:38;99813.98;;;19.11;44.79
34658;BME280;20865;43.312;27.152;2023-04-15T02:07:05;99814.44;;;19.11;45.09
34658;BME280;20865;43.312;27.152;2023-04-15T02:09:31;99808.71;;;19.15;45.12
34658;BME280;20865;43.312;27.152;2023-04-15T02:11:58;99789.49;;;19.13;44.88
34658;BME280;20865;43.312;27.152;2023-04-15T02:14:25;99787.37;;;19.11;44.81
34658;BME280;20865;43.312;27.152;2023-04-15T02:16:52;99789.49;;;18.94;44.96
34658;BME280;20865;43.312;27.152;2023-04-15T02:19:19;99815.16;;;19.07;44.97
34658;BME280;20865;43.312;27.152;2023-04-15T02:21:46;99826.75;;;19.09;45.59
34658;BME280;20865;43.312;27.152;2023-04-15T02:24:12;99824.31;;;19.12;45.60
34658;BME280;20865;43.312;27.152;2023-04-15T02:26:39;99834.37;;;19.10;45.85
34658;BME280;20865;43.312;27.152;2023-04-15T02:29:06;99827.83;;;19.07;45.78
34658;BME280;20865;43.312;27.152;2023-04-15T02:31:33;99817.49;;;19.06;45.81
34658;BME280;20865;43.312;27.152;2023-04-15T02:34:01;99811.37;;;19.10;45.69
34658;BME280;20865;43.312;27.152;2023-04-15T02:36:29;99824.17;;;19.08;45.66
34658;BME280;20865;43.312;27.152;2023-04-15T02:38:56;99830.53;;;19.07;45.86
34658;BME280;20865;43.312;27.152;2023-04-15T02:41:23;99826.11;;;19.06;46.27
34658;BME280;20865;43.312;27.152;2023-04-15T02:43:51;99819.47;;;19.04;46.20
34658;BME280;20865;43.312;27.152;2023-04-15T02:46:18;99808.88;;;19.07;45.81
34658;BME280;20865;43.312;27.152;2023-04-15T02:48:47;99816.51;;;19.07;46.01
34658;BME280;20865;43.312;27.152;2023-04-15T02:51:15;99816.29;;;19.10;45.97
34658;BME280;20865;43.312;27.152;2023-04-15T02:53:42;99813.09;;;19.11;46.03
34658;BME280;20865;43.312;27.152;2023-04-15T02:56:08;99817.98;;;19.06;45.84
34658;BME280;20865;43.312;27.152;2023-04-15T02:58:37;99820.82;;;19.04;45.35
34658;BME280;20865;43.312;27.152;2023-04-15T03:01:04;99820.84;;;19.10;45.60
34658;BME280;20865;43.312;27.152;2023-04-15T03:03:33;99820.41;;;19.16;45.89
34658;BME280;20865;43.312;27.152;2023-04-15T03:06:00;99822.12;;;19.17;46.12
34658;BME280;20865;43.312;27.152;2023-04-15T03:08:26;99820.11;;;19.08;46.37
34658;BME280;20865;43.312;27.152;2023-04-15T03:10:53;99827.04;;;18.99;46.39
34658;BME280;20865;43.312;27.152;2023-04-15T03:13:20;99818.64;;;18.96;46.22
34658;BME280;20865;43.312;27.152;2023-04-15T03:15:47;99821.75;;;18.97;46.30
34658;BME280;20865;43.312;27.152;2023-04-15T03:18:14;99828.25;;;18.82;46.84
34658;BME280;20865;43.312;27.152;2023-04-15T03:20:41;99848.11;;;18.88;47.23
34658;BME280;20865;43.312;27.152;2023-04-15T03:23:08;99848.27;;;18.92;47.42
34658;BME280;20865;43.312;27.152;2023-04-15T03:25:35;99863.42;;;18.82;47.83
34658;BME280;20865;43.312;27.152;2023-04-15T03:28:02;99854.38;;;19.01;47.20
34658;BME280;20865;43.312;27.152;2023-04-15T03:30:29;99822.53;;;18.87;47.12
34658;BME280;20865;43.312;27.152;2023-04-15T03:32:56;99811.45;;;18.90;47.14
34658;BME280;20865;43.312;27.152;2023-04-15T03:35:23;99807.00;;;18.83;47.33
34658;BME280;20865;43.312;27.152;2023-04-15T03:37:50;99790.70;;;18.77;47.47
34658;BME280;20865;43.312;27.152;2023-04-15T03:40:16;99788.00;;;18.77;47.67
34658;BME280;20865;43.312;27.152;2023-04-15T03:42:43;99785.94;;;18.81;47.75
34658;BME280;20865;43.312;27.152;2023-04-15T03:45:10;99792.70;;;18.81;47.96
34658;BME280;20865;43.312;27.152;2023-04-15T03:47:37;99800.12;;;18.72;48.32
34658;BME280;20865;43.312;27.152;2023-04-15T03:50:04;99812.20;;;18.73;48.44
34658;BME280;20865;43.312;27.152;2023-04-15T03:52:32;99800.39;;;18.74;48.41
34658;BME280;20865;43.312;27.152;2023-04-15T03:54:58;99789.70;;;18.73;48.54
34658;BME280;20865;43.312;27.152;2023-04-15T03:57:26;99797.08;;;18.64;48.69
34658;BME280;20865;43.312;27.152;2023-04-15T03:59:53;99789.66;;;18.60;48.87
34658;BME280;20865;43.312;27.152;2023-04-15T04:02:20;99799.95;;;18.42;49.19
34658;BME280;20865;43.312;27.152;2023-04-15T04:04:47;99806.75;;;18.22;49.51
34658;BME280;20865;43.312;27.152;2023-04-15T04:07:15;99796.70;;;18.24;49.44
34658;BME280;20865;43.312;27.152;2023-04-15T04:09:42;99799.62;;;18.21;49.48
34658;BME280;20865;43.312;27.152;2023-04-15T04:12:08;99795.14;;;18.27;49.50
34658;BME280;20865;43.312;27.152;2023-04-15T04:14:35;99801.41;;;18.28;49.31
34658;BME280;20865;43.312;27.152;2023-04-15T04:17:02;99805.47;;;18.28;49.40
34658;BME280;20865;43.312;27.152;2023-04-15T04:19:29;99799.02;;;18.36;49.09
34658;BME280;20865;43.312;27.152;2023-04-15T04:21:56;99821.64;;;18.35;49.00
34658;BME280;20865;43.312;27.152;2023-04-15T04:24:23;99833.80;;;18.35;48.96
34658;BME280;20865;43.312;27.152;2023-04-15T04:26:49;99833.31;;;18.36;48.75
34658;BME280;20865;43.312;27.152;2023-04-15T04:29:16;99832.08;;;18.34;48.95
34658;BME280;20865;43.312;27.152;2023-04-15T04:31:43;99822.87;;;18.37;48.97
34658;BME280;20865;43.312;27.152;2023-04-15T04:34:10;99824.71;;;18.36;49.26
34658;BME280;20865;43.312;27.152;2023-04-15T04:36:37;99815.14;;;18.50;49.63
34658;BME280;20865;43.312;27.152;2023-04-15T04:39:04;99827.72;;;18.51;49.75
34658;BME280;20865;43.312;27.152;2023-04-15T04:41:31;99826.37;;;18.44;50.11
34658;BME280;20865;43.312;27.152;2023-04-15T04:43:57;99830.06;;;18.43;50.13
34658;BME280;20865;43.312;27.152;2023-04-15T04:46:24;99821.32;;;18.52;50.06
34658;BME280;20865;43.312;27.152;2023-04-15T04:48:51;99814.21;;;18.44;49.99
34658;BME280;20865;43.312;27.152;2023-04-15T04:51:18;99817.97;;;18.49;49.99
34658;BME280;20865;43.312;27.152;2023-04-15T04:53:45;99824.50;;;18.39;50.19
34658;BME280;20865;43.312;27.152;2023-04-15T04:56:12;99822.62;;;18.34;50.82
34658;BME280;20865;43.312;27.152;2023-04-15T04:58:39;99829.33;;;18.41;51.08
34658;BME280;20865;43.312;27.152;2023-04-15T05:01:07;99825.22;;;18.48;51.02
34658;BME280;20865;43.312;27.152;2023-04-15T05:03:33;99823.09;;;18.46;51.30
34658;BME280;20865;43.312;27.152;2023-04-15T05:06:01;99825.41;;;18.58;51.27
34658;BME280;20865;43.312;27.152;2023-04-15T05:08:29;99816.22;;;18.61;51.34
34658;BME280;20865;43.312;27.152;2023-04-15T05:10:56;99807.52;;;18.63;51.30
34658;BME280;20865;43.312;27.152;2023-04-15T05:13:23;99806.60;;;18.56;51.20
34658;BME280;20865;43.312;27.152;2023-04-15T05:15:49;99826.89;;;18.69;51.07
34658;BME280;20865;43.312;27.152;2023-04-15T05:18:16;99835.84;;;18.77;50.88
34658;BME280;20865;43.312;27.152;2023-04-15T05:20:43;99846.45;;;18.80;51.20
34658;BME280;20865;43.312;27.152;2023-04-15T05:23:10;99843.28;;;18.86;51.21
34658;BME280;20865;43.312;27.152;2023-04-15T05:25:37;99847.09;;;18.84;51.19
34658;BME280;20865;43.312;27.152;2023-04-15T05:28:03;99852.08;;;18.77;50.91
34658;BME280;20865;43.312;27.152;2023-04-15T05:30:30;99839.99;;;18.88;50.85
34658;BME280;20865;43.312;27.152;2023-04-15T05:32:57;99843.06;;;18.89;51.03
34658;BME280;20865;43.312;27.152;2023-04-15T05:35:24;99854.02;;;19.00;50.93
34658;BME280;20865;43.312;27.152;2023-04-15T05:37:51;99859.17;;;19.03;50.97
34658;BME280;20865;43.312;27.152;2023-04-15T05:40:18;99858.44;;;19.01;51.02
34658;BME280;20865;43.312;27.152;2023-04-15T05:42:45;99854.88;;;18.75;51.83
34658;BME280;20865;43.312;27.152;2023-04-15T05:45:12;99841.63;;;18.78;51.08
34658;BME280;20865;43.312;27.152;2023-04-15T05:47:38;99848.41;;;18.96;50.80
34658;BME280;20865;43.312;27.152;2023-04-15T05:50:05;99848.68;;;19.12;51.04
34658;BME280;20865;43.312;27.152;2023-04-15T05:52:32;99853.55;;;19.07;51.83
34658;BME280;20865;43.312;27.152;2023-04-15T05:54:59;99840.78;;;19.09;52.09
34658;BME280;20865;43.312;27.152;2023-04-15T05:57:26;99834.16;;;19.13;52.26
34658;BME280;20865;43.312;27.152;2023-04-15T05:59:53;99833.09;;;19.02;52.33
34658;BME280;20865;43.312;27.152;2023-04-15T06:02:21;99841.70;;;19.02;52.36
34658;BME280;20865;43.312;27.152;2023-04-15T06:04:48;99831.47;;;19.00;52.43
34658;BME280;20865;43.312;27.152;2023-04-15T06:07:15;99813.27;;;19.15;52.20
34658;BME280;20865;43.312;27.152;2023-04-15T06:09:42;99817.70;;;19.16;52.23
34658;BME280;20865;43.312;27.152;2023-04-15T06:12:09;99808.34;;;19.14;52.66
34658;BME280;20865;43.312;27.152;2023-04-15T06:14:37;99815.99;;;19.20;52.48
34658;BME280;20865;43.312;27.152;2023-04-15T06:17:05;99823.11;;;19.16;52.46
34658;BME280;20865;43.312;27.152;2023-04-15T06:19:32;99825.31;;;18.98;52.80
34658;BME280;20865;43.312;27.152;2023-04-15T06:21:59;99820.48;;;19.09;53.09
34658;BME280;20865;43.312;27.152;2023-04-15T06:24:26;99832.64;;;19.21;53.02
34658;BME280;20865;43.312;27.152;2023-04-15T06:26:53;99827.39;;;19.31;52.96
34658;BME280;20865;43.312;27.152;2023-04-15T06:29:20;99832.14;;;19.40;53.18
34658;BME280;20865;43.312;27.152;2023-04-15T06:31:47;99842.47;;;19.41;53.20
34658;BME280;20865;43.312;27.152;2023-04-15T06:34:14;99855.42;;;19.43;52.75
34658;BME280;20865;43.312;27.152;2023-04-15T06:36:41;99885.66;;;19.55;52.63
34658;BME280;20865;43.312;27.152;2023-04-15T06:39:08;99885.28;;;19.54;52.11
34658;BME280;20865;43.312;27.152;2023-04-15T06:41:35;99904.72;;;19.66;51.91
34658;BME280;20865;43.312;27.152;2023-04-15T06:44:02;99905.36;;;19.70;52.73
34658;BME280;20865;43.312;27.152;2023-04-15T06:46:29;99932.05;;;19.82;53.08
34658;BME280;20865;43.312;27.152;2023-04-15T06:48:56;99936.39;;;19.84;53.08
34658;BME280;20865;43.312;27.152;2023-04-15T06:51:23;99935.03;;;19.84;53.19
34658;BME280;20865;43.312;27.152;2023-04-15T06:53:50;99926.28;;;19.86;52.89
34658;BME280;20865;43.312;27.152;2023-04-15T06:56:16;99929.61;;;19.84;52.43
34658;BME280;20865;43.312;27.152;2023-04-15T06:58:43;99932.97;;;19.93;52.41
34658;BME280;20865;43.312;27.152;2023-04-15T07:01:10;99925.88;;;20.04;51.94
34658;BME280;20865;43.312;27.152;2023-04-15T07:03:38;99925.80;;;20.11;51.95
34658;BME280;20865;43.312;27.152;2023-04-15T07:06:06;99922.99;;;20.18;51.90
34658;BME280;20865;43.312;27.152;2023-04-15T07:08:35;99923.39;;;20.25;51.76
34658;BME280;20865;43.312;27.152;2023-04-15T07:11:01;99926.54;;;20.37;51.59
34658;BME280;20865;43.312;27.152;2023-04-15T07:13:29;99920.16;;;20.49;51.28
34658;BME280;20865;43.312;27.152;2023-04-15T07:15:58;99927.23;;;20.52;50.76
34658;BME280;20865;43.312;27.152;2023-04-15T07:18:26;99922.70;;;20.58;50.98
34658;BME280;20865;43.312;27.152;2023-04-15T07:20:57;99923.09;;;20.64;51.11
34658;BME280;20865;43.312;27.152;2023-04-15T07:23:26;99925.20;;;20.72;50.34
34658;BME280;20865;43.312;27.152;2023-04-15T07:25:58;99918.31;;;20.90;49.49
34658;BME280;20865;43.312;27.152;2023-04-15T07:28:28;99933.37;;;20.94;50.04
34658;BME280;20865;43.312;27.152;2023-04-15T07:30:58;99938.94;;;20.93;49.52
34658;BME280;20865;43.312;27.152;2023-04-15T07:33:28;99932.75;;;20.91;49.82
34658;BME280;20865;43.312;27.152;2023-04-15T07:35:56;99927.72;;;20.92;49.49
34658;BME280;20865;43.312;27.152;2023-04-15T07:38:23;99935.59;;;20.95;49.37
34658;BME280;20865;43.312;27.152;2023-04-15T07:40:51;99941.41;;;20.96;49.42
34658;BME280;20865;43.312;27.152;2023-04-15T07:43:19;99946.21;;;20.98;49.01
34658;BME280;20865;43.312;27.152;2023-04-15T07:45:50;99953.84;;;20.87;48.61
34658;BME280;20865;43.312;27.152;2023-04-15T07:48:18;99954.23;;;20.94;48.88
34658;BME280;20865;43.312;27.152;2023-04-15T07:50:45;99948.55;;;20.86;49.31
34658;BME280;20865;43.312;27.152;2023-04-15T07:53:12;99949.06;;;20.97;49.47
34658;BME280;20865;43.312;27.152;2023-04-15T07:55:40;99957.55;;;20.86;50.01
34658;BME280;20865;43.312;27.152;2023-04-15T07:58:08;99953.56;;;20.74;49.39
34658;BME280;20865;43.312;27.152;2023-04-15T08:00:35;99951.58;;;20.46;50.15
34658;BME280;20865;43.312;27.152;2023-04-15T08:03:03;99958.83;;;20.58;50.38
34658;BME280;20865;43.312;27.152;2023-04-15T08:05:30;99955.02;;;20.66;50.39
34658;BME280;20865;43.312;27.152;2023-04-15T08:07:57;99957.73;;;20.61;50.69
34658;BME280;20865;43.312;27.152;2023-04-15T08:10:24;99965.52;;;20.65;50.87
34658;BME280;20865;43.312;27.152;2023-04-15T08:12:51;99961.97;;;20.76;50.06
34658;BME280;20865;43.312;27.152;2023-04-15T08:15:20;99972.16;;;20.67;50.04
34658;BME280;20865;43.312;27.152;2023-04-15T08:17:46;99984.67;;;20.75;49.97
34658;BME280;20865;43.312;27.152;2023-04-15T08:20:13;99988.30;;;20.92;49.65
34658;BME280;20865;43.312;27.152;2023-04-15T08:22:40;99991.56;;;20.68;49.84
34658;BME280;20865;43.312;27.152;2023-04-15T08:25:07;99987.88;;;20.80;50.06
34658;BME280;20865;43.312;27.152;2023-04-15T08:27:35;99988.27;;;20.87;50.20
34658;BME280;20865;43.312;27.152;2023-04-15T08:30:02;99991.98;;;20.91;50.39
34658;BME280;20865;43.312;27.152;2023-04-15T08:32:29;99983.63;;;21.00;50.70
34658;BME280;20865;43.312;27.152;2023-04-15T08:34:56;99983.53;;;21.13;50.43
34658;BME280;20865;43.312;27.152;2023-04-15T08:37:23;99989.95;;;21.17;50.40
34658;BME280;20865;43.312;27.152;2023-04-15T08:39:51;99987.36;;;21.22;50.22
34658;BME280;20865;43.312;27.152;2023-04-15T08:42:18;99990.55;;;21.27;49.57
34658;BME280;20865;43.312;27.152;2023-04-15T08:44:46;99996.80;;;21.34;49.66
34658;BME280;20865;43.312;27.152;2023-04-15T08:47:13;100001.84;;;21.61;49.00
34658;BME280;20865;43.312;27.152;2023-04-15T08:49:41;99999.00;;;21.69;48.96
34658;BME280;20865;43.312;27.152;2023-04-15T08:52:08;100001.98;;;21.77;49.13
34658;BME280;20865;43.312;27.152;2023-04-15T08:54:37;100001.59;;;21.81;48.51
34658;BME280;20865;43.312;27.152;2023-04-15T08:57:04;100006.66;;;21.92;48.54
34658;BME280;20865;43.312;27.152;2023-04-15T08:59:31;100013.43;;;22.14;48.33
34658;BME280;20865;43.312;27.152;2023-04-15T09:01:58;100015.01;;;22.28;48.03
34658;BME280;20865;43.312;27.152;2023-04-15T09:04:26;100014.39;;;22.35;46.43
34658;BME280;20865;43.312;27.152;2023-04-15T09:06:53;100016.42;;;22.54;46.80
34658;BME280;20865;43.312;27.152;2023-04-15T09:09:21;100022.06;;;22.68;46.64
34658;BME280;20865;43.312;27.152;2023-04-15T09:11:48;100020.48;;;22.87;45.15
34658;BME280;20865;43.312;27.152;2023-04-15T09:14:16;100014.28;;;22.96;45.54
34658;BME280;20865;43.312;27.152;2023-04-15T09:17:00;100011.75;;;23.04;45.53
34658;BME280;20865;43.312;27.152;2023-04-15T09:19:23;100007.63;;;23.15;44.89
34658;BME280;20865;43.312;27.152;2023-04-15T09:21:58;100012.22;;;23.45;44.08
34658;BME280;20865;43.312;27.152;2023-04-15T09:24:19;100012.04;;;23.52;42.39
34658;BME280;20865;43.312;27.152;2023-04-15T09:26:46;99999.84;;;23.47;42.34
34658;BME280;20865;43.312;27.152;2023-04-15T09:29:12;100003.56;;;23.61;42.78
34658;BME280;20865;43.312;27.152;2023-04-15T09:31:39;99995.19;;;23.99;43.48
34658;BME280;20865;43.312;27.152;2023-04-15T09:34:07;99990.02;;;24.31;43.27
34658;BME280;20865;43.312;27.152;2023-04-15T09:39:14;99993.58;;;24.66;43.14
34658;BME280;20865;43.312;27.152;2023-04-15T09:41:41;99994.80;;;24.87;41.86
34658;BME280;20865;43.312;27.152;2023-04-15T09:44:26;99993.48;;;24.91;40.65
34658;BME280;20865;43.312;27.152;2023-04-15T09:46:49;99995.28;;;25.15;40.96
34658;BME280;20865;43.312;27.152;2023-04-15T09:49:16;99985.77;;;25.19;41.57
34658;BME280;20865;43.312;27.152;2023-04-15T09:51:44;99981.30;;;25.09;38.22
34658;BME280;20865;43.312;27.152;2023-04-15T09:54:11;99988.85;;;25.21;39.34
34658;BME280;20865;43.312;27.152;2023-04-15T09:56:38;99979.59;;;25.41;40.18
34658;BME280;20865;43.312;27.152;2023-04-15T09:59:08;99991.01;;;25.50;42.07
34658;BME280;20865;43.312;27.152;2023-04-15T10:01:35;99988.42;;;25.62;40.21
34658;BME280;20865;43.312;27.152;2023-04-15T10:04:02;99984.28;;;25.72;40.43
34658;BME280;20865;43.312;27.152;2023-04-15T10:06:30;99980.05;;;25.74;37.33
34658;BME280;20865;43.312;27.152;2023-04-15T10:08:57;99974.28;;;25.90;36.91
34658;BME280;20865;43.312;27.152;2023-04-15T10:11:25;99983.52;;;25.66;37.58
34658;BME280;20865;43.312;27.152;2023-04-15T10:13:52;99972.23;;;25.79;39.75
34658;BME280;20865;43.312;27.152;2023-04-15T10:16:20;99976.20;;;25.94;38.93
34658;BME280;20865;43.312;27.152;2023-04-15T10:18:50;99967.81;;;26.05;39.32
34658;BME280;20865;43.312;27.152;2023-04-15T10:21:16;99965.11;;;26.09;35.57
34658;BME280;20865;43.312;27.152;2023-04-15T10:23:47;99960.24;;;26.35;34.77
34658;BME280;20865;43.312;27.152;2023-04-15T10:26:11;99961.41;;;26.32;36.86
34658;BME280;20865;43.312;27.152;2023-04-15T10:28:40;99962.05;;;26.26;37.67
34658;BME280;20865;43.312;27.152;2023-04-15T10:31:07;99960.65;;;26.40;37.74
34658;BME280;20865;43.312;27.152;2023-04-15T10:33:34;99958.87;;;26.49;37.75
34658;BME280;20865;43.312;27.152;2023-04-15T10:36:01;99958.22;;;26.51;36.79
34658;BME280;20865;43.312;27.152;2023-04-15T10:41:22;99959.80;;;26.75;36.09
34658;BME280;20865;43.312;27.152;2023-04-15T10:43:54;99944.24;;;27.88;35.57
34658;BME280;20865;43.312;27.152;2023-04-15T10:46:22;99950.14;;;28.14;35.76
34658;BME280;20865;43.312;27.152;2023-04-15T10:48:49;99956.52;;;28.18;34.87
34658;BME280;20865;43.312;27.152;2023-04-15T10:51:41;99957.00;;;28.14;33.25
34658;BME280;20865;43.312;27.152;2023-04-15T10:53:45;99952.59;;;28.37;33.78
34658;BME280;20865;43.312;27.152;2023-04-15T10:56:12;99950.76;;;27.83;34.79
34658;BME280;20865;43.312;27.152;2023-04-15T10:58:42;99954.73;;;27.59;35.26
34658;BME280;20865;43.312;27.152;2023-04-15T11:01:10;99946.02;;;27.67;34.76
34658;BME280;20865;43.312;27.152;2023-04-15T11:03:37;99955.61;;;28.01;34.74
34658;BME280;20865;43.312;27.152;2023-04-15T11:06:04;99946.20;;;27.66;35.48
34658;BME280;20865;43.312;27.152;2023-04-15T11:11:16;99943.19;;;27.81;32.49
34658;BME280;20865;43.312;27.152;2023-04-15T11:13:47;99948.02;;;27.87;32.97
34658;BME280;20865;43.312;27.152;2023-04-15T11:16:14;99947.17;;;27.91;33.56
34658;BME280;20865;43.312;27.152;2023-04-15T11:18:42;99944.03;;;27.77;32.88
34658;BME280;20865;43.312;27.152;2023-04-15T11:21:12;99947.14;;;28.41;30.06
34658;BME280;20865;43.312;27.152;2023-04-15T11:23:39;99946.14;;;28.67;31.08
34658;BME280;20865;43.312;27.152;2023-04-15T11:26:08;99945.78;;;28.82;30.24
34658;BME280;20865;43.312;27.152;2023-04-15T11:28:37;99953.16;;;28.90;29.37
34658;BME280;20865;43.312;27.152;2023-04-15T11:31:06;99952.48;;;28.92;27.80
34658;BME280;20865;43.312;27.152;2023-04-15T11:33:35;99947.50;;;28.95;28.30
34658;BME280;20865;43.312;27.152;2023-04-15T11:36:02;99941.49;;;28.92;28.92
34658;BME280;20865;43.312;27.152;2023-04-15T11:38:29;99946.65;;;28.95;28.56
34658;BME280;20865;43.312;27.152;2023-04-15T11:40:56;99947.52;;;29.00;27.75
34658;BME280;20865;43.312;27.152;2023-04-15T11:43:23;99947.87;;;29.09;28.52
34658;BME280;20865;43.312;27.152;2023-04-15T11:45:51;99943.02;;;28.90;26.34
34658;BME280;20865;43.312;27.152;2023-04-15T11:48:18;99945.11;;;28.84;27.21
34658;BME280;20865;43.312;27.152;2023-04-15T11:50:50;99939.27;;;28.91;26.44
34658;BME280;20865;43.312;27.152;2023-04-15T11:53:14;99937.04;;;28.91;26.63
34658;BME280;20865;43.312;27.152;2023-04-15T11:55:41;99932.92;;;28.99;27.50
34658;BME280;20865;43.312;27.152;2023-04-15T11:58:09;99934.47;;;28.77;26.15
34658;BME280;20865;43.312;27.152;2023-04-15T12:00:37;99943.05;;;28.74;26.47
34658;BME280;20865;43.312;27.152;2023-04-15T12:03:15;99930.33;;;28.98;27.44
34658;BME280;20865;43.312;27.152;2023-04-15T12:08:23;99928.28;;;29.00;26.60
34658;BME280;20865;43.312;27.152;2023-04-15T12:10:50;99922.79;;;28.67;25.35
34658;BME280;20865;43.312;27.152;2023-04-15T12:13:17;99922.05;;;28.32;25.94
34658;BME280;20865;43.312;27.152;2023-04-15T12:15:44;99928.22;;;28.30;28.41
34658;BME280;20865;43.312;27.152;2023-04-15T12:18:17;99930.84;;;28.44;27.93
34658;BME280;20865;43.312;27.152;2023-04-15T12:20:44;99932.21;;;28.48;26.70
34658;BME280;20865;43.312;27.152;2023-04-15T12:23:12;99927.24;;;28.39;26.89
34658;BME280;20865;43.312;27.152;2023-04-15T12:25:38;99937.31;;;28.35;25.85
34658;BME280;20865;43.312;27.152;2023-04-15T12:28:12;99932.40;;;28.38;25.60
34658;BME280;20865;43.312;27.152;2023-04-15T12:30:47;99933.25;;;28.51;26.18
34658;BME280;20865;43.312;27.152;2023-04-15T12:33:07;99927.02;;;28.37;24.60
34658;BME280;20865;43.312;27.152;2023-04-15T12:35:35;99919.33;;;28.48;23.64
34658;BME280;20865;43.312;27.152;2023-04-15T12:38:01;99927.55;;;28.36;24.51
34658;BME280;20865;43.312;27.152;2023-04-15T12:40:28;99925.87;;;28.43;25.77
34658;BME280;20865;43.312;27.152;2023-04-15T12:42:55;99923.30;;;28.54;26.23
34658;BME280;20865;43.312;27.152;2023-04-15T12:45:22;99917.98;;;28.53;26.39
34658;BME280;20865;43.312;27.152;2023-04-15T12:47:48;99920.22;;;28.53;27.25
34658;BME280;20865;43.312;27.152;2023-04-15T12:50:15;99919.70;;;28.45;26.16
34658;BME280;20865;43.312;27.152;2023-04-15T12:52:44;99914.54;;;28.51;27.75
34658;BME280;20865;43.312;27.152;2023-04-15T12:55:11;99912.31;;;28.50;27.47
34658;BME280;20865;43.312;27.152;2023-04-15T12:57:38;99904.53;;;28.33;25.86
34658;BME280;20865;43.312;27.152;2023-04-15T13:00:05;99913.50;;;28.56;26.77
34658;BME280;20865;43.312;27.152;2023-04-15T13:02:33;99914.88;;;28.52;25.02